Terminal Aerodrome Forecast
Issued by NWS Bismarck, ND

Home | Current Version | Previous Version | Text Only | Print | Product List | Glossary On
Versions: 1 2 3 4 5 6 7 8 9 10 11 12 13 14 15 16
000
FTUS43 KBIS 231100
TAFISN
TAF
KISN 231133Z 2312/2412 12006KT P6SM SCT100
     FM231500 14014KT P6SM BKN060
     FM240000 13013KT P6SM BKN060
      TEMPO 2403/2407 -TSRA OVC050CB=

USA.gov is the U.S. government's official web portal to all federal, state and local government web resources and services.